createdAt,value
2022-07-27T00:55:46.397Z,59.30
2022-07-27T01:04:32.045Z,59.70
2022-07-27T01:17:09.922Z,60.50
2022-07-27T01:38:30.498Z,61.20
2022-07-27T01:46:51.565Z,61.30
2022-07-27T01:50:55.017Z,61.70
2022-07-27T01:54:58.756Z,62.00
2022-07-27T02:07:55.630Z,62.60
2022-07-27T02:20:52.027Z,62.70
2022-07-27T02:29:14.786Z,62.80
2022-07-27T02:41:55.392Z,63.00
2022-07-27T02:45:59.207Z,62.90
2022-07-27T02:54:58.007Z,63.10
2022-07-27T02:59:03.518Z,63.00
2022-07-27T03:03:07.464Z,63.40
2022-07-27T03:07:11.498Z,62.30
2022-07-27T03:15:38.747Z,63.30
2022-07-27T03:19:41.918Z,62.90
2022-07-27T03:23:46.001Z,62.70
2022-07-27T03:27:51.264Z,62.80
2022-07-27T03:31:55.744Z,62.80
2022-07-27T03:40:16.667Z,63.40
2022-07-27T03:44:21.474Z,63.70
2022-07-27T03:48:27.360Z,63.80
2022-07-27T03:52:30.987Z,64.30
2022-07-27T03:56:33.840Z,64.50
2022-07-27T04:00:36.941Z,64.30
2022-07-27T04:04:40.245Z,64.60
2022-07-27T04:08:43.659Z,64.40
2022-07-27T04:12:48.425Z,64.10
2022-07-27T04:16:54.274Z,64.20
2022-07-27T04:20:59.553Z,63.90
2022-07-27T04:25:02.772Z,63.80
2022-07-27T04:29:06.043Z,63.60
2022-07-27T04:33:08.969Z,63.50
2022-07-27T04:37:11.995Z,63.50
2022-07-27T04:41:14.778Z,63.90
2022-07-27T04:45:17.751Z,64.60
2022-07-27T04:49:20.856Z,65.10
2022-07-27T04:53:23.845Z,65.20
2022-07-27T04:57:26.693Z,65.10
2022-07-27T05:01:35.371Z,65.10
2022-07-27T05:05:38.729Z,65.70
2022-07-27T05:09:45.559Z,66.00
2022-07-27T05:13:48.591Z,65.70
2022-07-27T05:17:52.597Z,65.30
2022-07-27T05:21:55.478Z,65.20
2022-07-27T05:25:58.421Z,65.00
2022-07-27T05:30:01.114Z,64.80
2022-07-27T05:34:04.092Z,64.70
2022-07-27T05:38:06.923Z,64.60
2022-07-27T05:42:10.187Z,64.40
2022-07-27T05:46:13.107Z,64.20
2022-07-27T05:50:16.552Z,63.90
2022-07-27T05:54:19.505Z,63.70
2022-07-27T05:58:24.271Z,63.10
2022-07-27T06:02:30.288Z,62.90
2022-07-27T06:06:51.366Z,62.20
2022-07-27T06:10:54.198Z,61.60
2022-07-27T06:14:57.561Z,60.90
2022-07-27T06:19:00.623Z,60.50
2022-07-27T06:23:08.232Z,60.20
2022-07-27T06:27:11.122Z,59.70
2022-07-27T06:31:15.256Z,59.10
2022-07-27T06:35:18.400Z,58.20
2022-07-27T06:39:21.630Z,57.60
2022-07-27T06:43:32.425Z,56.90
2022-07-27T06:47:49.913Z,56.20
2022-07-27T06:51:53.516Z,55.60
2022-07-27T06:55:58.451Z,54.90
2022-07-27T07:00:01.210Z,54.90
2022-07-27T07:04:04.410Z,54.70
2022-07-27T07:08:11.704Z,53.60
2022-07-27T07:12:18.713Z,52.70
2022-07-27T07:20:51.083Z,50.60
2022-07-27T07:33:33.663Z,46.90
2022-07-27T07:37:45.329Z,46.30
2022-07-27T07:41:59.304Z,45.90
2022-07-27T07:50:22.055Z,45.10
2022-07-27T07:58:47.284Z,43.90
2022-07-27T08:02:59.883Z,43.90
2022-07-27T08:07:06.365Z,43.80
2022-07-27T08:15:40.103Z,44.20
2022-07-27T08:28:39.580Z,44.00
2022-07-27T08:33:28.915Z,43.80
2022-07-27T08:37:33.121Z,43.40
2022-07-27T08:41:39.939Z,43.00
2022-07-27T08:45:56.981Z,42.50
2022-07-27T08:50:02.437Z,42.40
2022-07-27T08:54:06.801Z,42.10
2022-07-27T08:58:11.521Z,41.80
2022-07-27T09:02:15.582Z,41.50
2022-07-27T09:20:31.597Z,39.50
2022-07-27T09:34:28.519Z,38.70
2022-07-27T09:44:12.172Z,38.10
2022-07-27T09:47:41.652Z,37.80
2022-07-27T10:00:29.015Z,37.40
2022-07-27T10:04:34.920Z,37.00
2022-07-27T10:08:44.841Z,37.00
2022-07-27T10:13:03.265Z,36.20
2022-07-27T10:17:13.191Z,35.10
2022-07-27T10:21:16.935Z,35.20
2022-07-27T10:25:20.997Z,35.30
2022-07-27T10:29:24.736Z,35.70
2022-07-27T10:33:46.249Z,35.40
2022-07-27T10:38:19.911Z,35.60
2022-07-27T10:46:51.404Z,35.90
2022-07-27T10:50:54.336Z,35.80
2022-07-27T10:55:00.246Z,36.00
2022-07-27T10:59:04.998Z,36.50
2022-07-27T11:07:32.199Z,36.40
2022-07-27T11:16:23.802Z,35.20
2022-07-27T11:20:31.461Z,35.10
2022-07-27T11:24:37.149Z,35.10
2022-07-27T11:28:47.258Z,35.20
2022-07-27T11:37:35.900Z,34.30
2022-07-27T11:42:08.911Z,34.10
2022-07-27T11:46:18.139Z,34.00
2022-07-27T11:54:41.379Z,33.30
2022-07-27T11:59:01.562Z,32.60
2022-07-27T12:07:33.226Z,31.90
2022-07-27T12:12:11.795Z,31.30
2022-07-27T12:16:19.054Z,29.70
2022-07-27T12:20:25.165Z,30.10
2022-07-27T12:24:39.196Z,30.20
2022-07-27T12:28:42.028Z,30.10
2022-07-27T12:32:47.188Z,30.30
2022-07-27T12:36:54.386Z,30.20
2022-07-27T12:41:06.425Z,29.60
2022-07-27T12:45:21.993Z,29.90
2022-07-27T12:49:34.177Z,29.70
2022-07-27T12:53:38.460Z,29.50
2022-07-27T13:01:58.992Z,30.00
2022-07-27T13:06:02.915Z,30.30
2022-07-27T13:10:28.644Z,30.30
2022-07-27T13:23:12.377Z,29.30
2022-07-27T13:31:37.742Z,28.50
2022-07-27T13:39:59.088Z,27.70
2022-07-27T13:44:49.089Z,27.40
2022-07-27T13:48:48.767Z,27.50
2022-07-27T13:52:51.663Z,27.90
2022-07-27T13:56:59.558Z,28.00
2022-07-27T14:01:07.421Z,28.20
2022-07-27T14:05:20.492Z,27.70
2022-07-27T14:09:43.697Z,27.70
2022-07-27T14:13:54.544Z,27.00
2022-07-27T14:18:08.256Z,26.80
2022-07-27T14:22:14.445Z,27.00
2022-07-27T14:26:19.732Z,32.20
2022-07-27T14:30:24.997Z,33.70
2022-07-27T14:34:28.071Z,34.70
2022-07-27T14:38:34.538Z,36.20
2022-07-27T14:42:37.542Z,37.30
2022-07-27T14:46:40.779Z,38.50
2022-07-27T14:50:50.474Z,38.80
2022-07-27T15:03:33.585Z,41.50
2022-07-27T15:11:55.234Z,42.10
2022-07-27T15:24:41.870Z,43.20
2022-07-27T15:33:01.629Z,42.00
2022-07-27T15:37:09.024Z,41.60
2022-07-27T15:41:12.760Z,41.70
2022-07-27T15:49:33.924Z,42.50
2022-07-27T15:53:38.466Z,42.80
2022-07-27T15:57:41.884Z,42.70
2022-07-27T16:01:47.153Z,42.00
2022-07-27T16:05:55.428Z,40.40
2022-07-27T16:10:06.258Z,38.60
2022-07-27T16:18:27.042Z,36.90
2022-07-27T16:22:32.003Z,36.20
2022-07-27T16:31:05.277Z,34.90
2022-07-27T17:49:55.775Z,34.50
2022-07-27T17:53:58.565Z,35.70
2022-07-27T17:58:01.323Z,36.60
2022-07-27T18:02:04.915Z,37.40
2022-07-27T18:06:08.206Z,38.50
2022-07-27T18:10:10.954Z,39.30
2022-07-27T18:14:13.810Z,40.00
2022-07-27T18:18:22.701Z,40.70
2022-07-27T18:22:26.441Z,40.90
2022-07-27T18:26:30.101Z,41.30
2022-07-27T18:30:33.593Z,41.40
2022-07-27T18:51:49.174Z,43.80
2022-07-27T19:00:10.114Z,45.20
2022-07-27T19:04:15.763Z,45.40
2022-07-27T19:08:20.150Z,45.70
2022-07-27T19:12:23.320Z,45.70
2022-07-27T19:25:24.883Z,45.80
2022-07-27T19:29:27.820Z,45.70
2022-07-27T19:37:59.473Z,45.30
2022-07-27T19:42:02.719Z,45.20
2022-07-27T19:46:06.089Z,46.00
2022-07-27T19:54:28.610Z,46.50
2022-07-27T20:02:51.681Z,47.70
2022-07-27T20:28:22.527Z,48.70
2022-07-27T20:32:25.569Z,48.80
2022-07-27T20:36:31.846Z,49.10
2022-07-27T20:40:35.097Z,49.40
2022-07-27T20:44:38.764Z,49.50
2022-07-27T20:48:41.784Z,49.50
2022-07-27T20:52:45.775Z,49.50
2022-07-27T20:56:48.855Z,49.60
2022-07-27T21:00:51.781Z,49.90
2022-07-27T21:04:55.155Z,50.20
2022-07-27T21:09:02.973Z,50.70
2022-07-27T21:13:06.001Z,51.30
2022-07-27T21:17:09.349Z,51.70
2022-07-27T21:21:13.820Z,52.10
2022-07-27T21:25:17.612Z,52.40
2022-07-27T21:29:29.487Z,52.60
2022-07-27T21:33:44.227Z,52.70
2022-07-27T21:37:48.354Z,53.10
2022-07-27T21:41:51.461Z,53.30
2022-07-27T21:45:54.365Z,53.60
2022-07-27T21:49:57.339Z,53.70
2022-07-27T21:54:06.503Z,53.70
2022-07-27T22:02:30.920Z,53.70
2022-07-27T22:10:50.770Z,54.30
2022-07-27T22:15:08.606Z,54.70
2022-07-27T22:19:23.590Z,54.90
2022-07-27T22:27:46.307Z,55.30
2022-07-27T22:31:49.993Z,55.80
2022-07-27T22:35:53.282Z,56.10
2022-07-27T22:44:20.227Z,56.30
2022-07-27T22:48:25.063Z,56.50
2022-07-27T22:52:36.719Z,56.80
2022-07-27T22:56:41.310Z,57.10
2022-07-27T23:00:45.623Z,57.30
2022-07-27T23:04:48.567Z,57.60
2022-07-27T23:17:33.135Z,58.00
2022-07-27T23:21:37.469Z,58.10
2022-07-27T23:25:41.532Z,58.00
2022-07-27T23:29:46.369Z,58.10
2022-07-27T23:33:51.764Z,58.50
2022-07-27T23:37:55.802Z,58.80
2022-07-27T23:41:59.617Z,58.50
2022-07-27T23:58:58.278Z,58.90
